createdAt,value
2019-01-06T14:15:50.497Z,103314.80
2019-01-06T14:18:22.476Z,103314.77
2019-01-06T14:20:57.029Z,103323.23
2019-01-06T14:23:30.256Z,103319.24
2019-01-06T14:26:10.144Z,103312.58
2019-01-06T14:28:57.663Z,103314.35
2019-01-06T14:31:34.278Z,103313.03
2019-01-06T14:34:18.213Z,103316.12
2019-01-06T14:37:01.094Z,103321.92
2019-01-06T14:39:48.175Z,103321.92
2019-01-06T14:42:21.946Z,103309.92
2019-01-06T14:44:55.586Z,103325.04
2019-01-06T14:47:55.411Z,103327.68
2019-01-06T14:50:32.586Z,103325.02
2019-01-06T14:53:03.429Z,103313.92
2019-01-06T14:55:37.041Z,103323.68
2019-01-06T14:58:07.897Z,103325.02
2019-01-06T15:00:44.627Z,103322.80
2019-01-06T15:03:31.707Z,103324.16
2019-01-06T15:06:02.537Z,103325.93
2019-01-06T15:08:49.757Z,103317.48
2019-01-06T15:11:32.985Z,103317.48
2019-01-06T15:14:06.559Z,103312.61
2019-01-06T15:16:42.939Z,103314.38
2019-01-06T15:19:13.771Z,103321.06
2019-01-06T15:22:00.726Z,103322.82
2019-01-06T15:24:34.246Z,103322.82
2019-01-06T15:27:05.066Z,103325.93
2019-01-06T15:29:41.796Z,103323.72
2019-01-06T15:32:18.557Z,103329.94
2019-01-06T15:35:05.522Z,103317.91
2019-01-06T15:37:36.346Z,103321.93
2019-01-06T15:40:09.480Z,103325.04
2019-01-06T15:42:40.338Z,103325.95
2019-01-06T15:45:13.886Z,103325.95
2019-01-06T15:47:53.674Z,103323.28
2019-01-06T15:50:27.309Z,103323.28
2019-01-06T15:53:00.824Z,103319.70
2019-01-06T15:55:46.674Z,103332.62
2019-01-06T15:58:26.378Z,103329.93
2019-01-06T16:01:13.134Z,103334.36
2019-01-06T16:03:58.882Z,103334.36
2019-01-06T16:06:41.798Z,103332.59
2019-01-06T16:09:28.836Z,103336.14
2019-01-06T16:12:14.543Z,103325.50
2019-01-06T16:14:50.971Z,103325.50
2019-01-06T16:17:21.806Z,103331.28
2019-01-06T16:20:04.351Z,103335.71
2019-01-06T16:22:40.790Z,103319.70
2019-01-06T16:25:23.403Z,103328.17
2019-01-06T16:28:05.848Z,103328.17
2019-01-06T16:30:39.573Z,103330.38
2019-01-06T16:33:28.629Z,103337.47
2019-01-06T16:36:02.185Z,103337.47
2019-01-06T16:38:33.063Z,103342.80
2019-01-06T16:41:12.966Z,103341.03
2019-01-06T16:43:43.805Z,103341.03
2019-01-06T16:46:17.458Z,103343.27
2019-01-06T16:49:00.400Z,103341.03
2019-01-06T16:51:34.074Z,103346.83
2019-01-06T16:54:04.895Z,103346.83
2019-01-06T16:56:52.002Z,103340.58
2019-01-06T16:59:41.015Z,103339.69
2019-01-06T17:02:28.195Z,103344.59
2019-01-06T17:04:59.036Z,103344.60
2019-01-06T17:07:29.859Z,103342.38
2019-01-06T17:10:16.995Z,103346.83
2019-01-06T17:12:53.550Z,103352.18
2019-01-06T17:15:26.863Z,103351.25
2019-01-06T17:18:06.614Z,103349.52
2019-01-06T17:20:40.031Z,103352.18
2019-01-06T17:23:27.041Z,103352.18
2019-01-06T17:25:57.895Z,103352.18
2019-01-06T17:28:31.534Z,103353.05
2019-01-06T17:31:07.861Z,103353.05
2019-01-06T17:33:44.156Z,103351.70
2019-01-06T17:36:26.714Z,103355.67
2019-01-06T17:39:03.827Z,103355.67
2019-01-06T17:41:34.676Z,103349.89
2019-01-06T17:44:21.589Z,103356.16
2019-01-06T17:46:58.282Z,103356.13
2019-01-06T17:49:31.741Z,103354.82
2019-01-06T17:52:02.594Z,103354.80
2019-01-06T17:54:49.720Z,103355.71
2019-01-06T17:57:36.758Z,103359.70
2019-01-06T18:00:13.474Z,103360.17
2019-01-06T18:02:44.299Z,103360.17
2019-01-06T18:05:15.127Z,103352.16
2019-01-06T18:07:48.825Z,103352.16
2019-01-06T18:10:34.533Z,103361.92
2019-01-06T18:13:05.391Z,103361.50
2019-01-06T18:15:54.003Z,103359.27
2019-01-06T18:18:27.503Z,103365.50
2019-01-06T18:20:58.325Z,103366.84
2019-01-06T18:23:41.127Z,103363.28
2019-01-06T18:26:11.941Z,103357.92
2019-01-06T18:28:45.428Z,103357.92
2019-01-06T18:31:31.143Z,103357.03
2019-01-06T18:34:10.725Z,103359.25
2019-01-06T18:36:50.410Z,103361.95
2019-01-06T18:39:36.229Z,103361.95
2019-01-06T18:42:15.951Z,103361.96
2019-01-06T18:44:46.783Z,103365.96
2019-01-06T18:47:33.699Z,103365.96
2019-01-06T18:50:07.491Z,103364.63
2019-01-06T18:52:54.498Z,103366.83
2019-01-06T18:55:41.470Z,103367.27
2019-01-06T18:58:18.272Z,103363.25
2019-01-06T19:00:55.796Z,103361.91
2019-01-06T19:03:38.814Z,103365.94
2019-01-06T19:06:15.687Z,103362.37
2019-01-06T19:08:46.528Z,103350.80
2019-01-06T19:11:26.208Z,103353.48
2019-01-06T19:14:05.860Z,103358.84
2019-01-06T19:16:36.685Z,103358.84
2019-01-06T19:19:22.411Z,103366.84
2019-01-06T19:22:09.224Z,103362.41
2019-01-06T19:24:45.954Z,103371.75
2019-01-06T19:27:32.909Z,103377.98
2019-01-06T19:30:19.934Z,103367.73
